sensor_id;sensor_type;location;lat;lon;timestamp;temperature;humidity
36800;DHT22;22752;51.960;5.886;2023-11-21T00:01:56;7.40;99.90
36800;DHT22;22752;51.960;5.886;2023-11-21T00:04:22;7.50;99.90
36800;DHT22;22752;51.960;5.886;2023-11-21T00:06:48;7.50;99.90
36800;DHT22;22752;51.960;5.886;2023-11-21T00:09:15;7.50;99.90
36800;DHT22;22752;51.960;5.886;2023-11-21T00:11:41;7.50;99.90
36800;DHT22;22752;51.960;5.886;2023-11-21T00:14:07;7.50;99.90
36800;DHT22;22752;51.960;5.886;2023-11-21T00:16:33;7.50;99.90
36800;DHT22;22752;51.960;5.886;2023-11-21T00:18:59;7.50;99.90
36800;DHT22;22752;51.960;5.886;2023-11-21T00:21:25;7.50;99.90
36800;DHT22;22752;51.960;5.886;2023-11-21T00:23:51;7.40;99.90
36800;DHT22;22752;51.960;5.886;2023-11-21T00:26:16;7.40;99.90
36800;DHT22;22752;51.960;5.886;2023-11-21T00:28:42;7.40;99.90
36800;DHT22;22752;51.960;5.886;2023-11-21T00:31:08;7.40;99.90
36800;DHT22;22752;51.960;5.886;2023-11-21T00:33:33;7.40;99.90
36800;DHT22;22752;51.960;5.886;2023-11-21T00:35:59;7.40;99.90
36800;DHT22;22752;51.960;5.886;2023-11-21T00:38:26;7.30;99.90
36800;DHT22;22752;51.960;5.886;2023-11-21T00:40:52;7.30;99.90
36800;DHT22;22752;51.960;5.886;2023-11-21T00:43:24;7.30;99.90
36800;DHT22;22752;51.960;5.886;2023-11-21T00:45:50;7.30;99.90
36800;DHT22;22752;51.960;5.886;2023-11-21T00:48:16;7.30;99.90
36800;DHT22;22752;51.960;5.886;2023-11-21T00:50:43;7.30;99.90
36800;DHT22;22752;51.960;5.886;2023-11-21T00:53:09;7.30;99.90
36800;DHT22;22752;51.960;5.886;2023-11-21T00:55:35;7.40;99.90
36800;DHT22;22752;51.960;5.886;2023-11-21T00:58:01;7.40;99.90
36800;DHT22;22752;51.960;5.886;2023-11-21T01:00:29;7.50;99.90
36800;DHT22;22752;51.960;5.886;2023-11-21T01:02:55;7.50;99.90
36800;DHT22;22752;51.960;5.886;2023-11-21T01:05:21;7.60;99.90
36800;DHT22;22752;51.960;5.886;2023-11-21T01:07:47;7.60;99.90
36800;DHT22;22752;51.960;5.886;2023-11-21T01:10:12;7.70;99.90
36800;DHT22;22752;51.960;5.886;2023-11-21T01:12:39;7.70;99.90
36800;DHT22;22752;51.960;5.886;2023-11-21T01:15:05;7.80;99.90
36800;DHT22;22752;51.960;5.886;2023-11-21T01:17:33;7.80;99.90
36800;DHT22;22752;51.960;5.886;2023-11-21T01:20:00;7.90;99.90
36800;DHT22;22752;51.960;5.886;2023-11-21T01:22:26;7.90;99.90
36800;DHT22;22752;51.960;5.886;2023-11-21T01:24:53;7.90;99.90
36800;DHT22;22752;51.960;5.886;2023-11-21T01:27:19;7.90;99.90
36800;DHT22;22752;51.960;5.886;2023-11-21T01:29:44;8.00;99.90
36800;DHT22;22752;51.960;5.886;2023-11-21T01:32:10;8.00;99.90
36800;DHT22;22752;51.960;5.886;2023-11-21T01:34:36;7.90;99.90
36800;DHT22;22752;51.960;5.886;2023-11-21T01:37:02;8.00;99.90
36800;DHT22;22752;51.960;5.886;2023-11-21T01:39:30;8.00;99.90
36800;DHT22;22752;51.960;5.886;2023-11-21T01:41:56;8.10;99.90
36800;DHT22;22752;51.960;5.886;2023-11-21T01:44:26;8.00;99.90
36800;DHT22;22752;51.960;5.886;2023-11-21T01:46:52;8.10;99.90
36800;DHT22;22752;51.960;5.886;2023-11-21T01:49:19;8.10;99.90
36800;DHT22;22752;51.960;5.886;2023-11-21T01:51:47;8.10;99.90
36800;DHT22;22752;51.960;5.886;2023-11-21T01:54:15;8.20;99.90
36800;DHT22;22752;51.960;5.886;2023-11-21T01:56:44;8.20;99.90
36800;DHT22;22752;51.960;5.886;2023-11-21T01:59:12;8.20;99.90
36800;DHT22;22752;51.960;5.886;2023-11-21T02:01:39;8.20;99.90
36800;DHT22;22752;51.960;5.886;2023-11-21T02:04:06;8.20;99.90
36800;DHT22;22752;51.960;5.886;2023-11-21T02:06:33;8.30;99.90
36800;DHT22;22752;51.960;5.886;2023-11-21T02:08:59;8.30;99.90
36800;DHT22;22752;51.960;5.886;2023-11-21T02:11:25;8.30;99.90
36800;DHT22;22752;51.960;5.886;2023-11-21T02:13:53;8.30;99.90
36800;DHT22;22752;51.960;5.886;2023-11-21T02:16:19;8.30;99.90
36800;DHT22;22752;51.960;5.886;2023-11-21T02:18:47;8.30;99.90
36800;DHT22;22752;51.960;5.886;2023-11-21T02:21:14;8.30;99.90
36800;DHT22;22752;51.960;5.886;2023-11-21T02:23:40;8.40;99.90
36800;DHT22;22752;51.960;5.886;2023-11-21T02:26:10;8.40;99.90
36800;DHT22;22752;51.960;5.886;2023-11-21T02:28:36;8.40;99.90
36800;DHT22;22752;51.960;5.886;2023-11-21T02:31:02;8.40;99.90
36800;DHT22;22752;51.960;5.886;2023-11-21T02:33:30;8.40;99.90
36800;DHT22;22752;51.960;5.886;2023-11-21T02:35:59;8.40;99.90
36800;DHT22;22752;51.960;5.886;2023-11-21T02:38:25;8.40;99.90
36800;DHT22;22752;51.960;5.886;2023-11-21T02:40:51;8.40;99.90
36800;DHT22;22752;51.960;5.886;2023-11-21T02:43:16;8.40;99.90
36800;DHT22;22752;51.960;5.886;2023-11-21T02:45:42;8.40;99.90
36800;DHT22;22752;51.960;5.886;2023-11-21T02:48:07;8.40;99.90
36800;DHT22;22752;51.960;5.886;2023-11-21T02:50:33;8.50;99.90
36800;DHT22;22752;51.960;5.886;2023-11-21T02:53:01;8.50;99.90
36800;DHT22;22752;51.960;5.886;2023-11-21T02:55:27;8.50;99.90
36800;DHT22;22752;51.960;5.886;2023-11-21T02:57:53;8.60;99.90
36800;DHT22;22752;51.960;5.886;2023-11-21T03:00:21;8.70;99.90
36800;DHT22;22752;51.960;5.886;2023-11-21T03:02:49;8.60;99.90
36800;DHT22;22752;51.960;5.886;2023-11-21T03:05:15;8.70;99.90
36800;DHT22;22752;51.960;5.886;2023-11-21T03:07:40;8.70;99.90
36800;DHT22;22752;51.960;5.886;2023-11-21T03:10:09;8.70;99.90
36800;DHT22;22752;51.960;5.886;2023-11-21T03:12:39;8.70;99.90
36800;DHT22;22752;51.960;5.886;2023-11-21T03:15:06;8.70;99.90
36800;DHT22;22752;51.960;5.886;2023-11-21T03:17:32;8.70;99.90
36800;DHT22;22752;51.960;5.886;2023-11-21T03:19:59;8.70;99.90
36800;DHT22;22752;51.960;5.886;2023-11-21T03:22:25;8.70;99.90
36800;DHT22;22752;51.960;5.886;2023-11-21T03:24:51;8.70;99.90
36800;DHT22;22752;51.960;5.886;2023-11-21T03:27:18;8.70;99.90
36800;DHT22;22752;51.960;5.886;2023-11-21T03:29:43;8.70;99.90
36800;DHT22;22752;51.960;5.886;2023-11-21T03:32:10;8.70;99.90
36800;DHT22;22752;51.960;5.886;2023-11-21T03:34:56;8.70;99.90
36800;DHT22;22752;51.960;5.886;2023-11-21T03:37:22;8.80;99.90
36800;DHT22;22752;51.960;5.886;2023-11-21T03:39:47;8.80;99.90
36800;DHT22;22752;51.960;5.886;2023-11-21T03:42:13;8.80;99.90
36800;DHT22;22752;51.960;5.886;2023-11-21T03:44:39;8.80;99.90
36800;DHT22;22752;51.960;5.886;2023-11-21T03:47:04;8.80;99.90
36800;DHT22;22752;51.960;5.886;2023-11-21T03:49:30;8.80;99.90
36800;DHT22;22752;51.960;5.886;2023-11-21T03:51:56;8.80;99.90
36800;DHT22;22752;51.960;5.886;2023-11-21T03:54:22;8.90;99.90
36800;DHT22;22752;51.960;5.886;2023-11-21T03:56:47;8.80;99.90
36800;DHT22;22752;51.960;5.886;2023-11-21T03:59:13;8.80;99.90
36800;DHT22;22752;51.960;5.886;2023-11-21T04:01:38;8.80;99.90
36800;DHT22;22752;51.960;5.886;2023-11-21T04:04:04;8.80;99.90
36800;DHT22;22752;51.960;5.886;2023-11-21T04:06:30;8.80;99.90
36800;DHT22;22752;51.960;5.886;2023-11-21T04:08:58;8.80;99.90
36800;DHT22;22752;51.960;5.886;2023-11-21T04:11:24;8.80;99.90
36800;DHT22;22752;51.960;5.886;2023-11-21T04:13:49;8.80;99.90
36800;DHT22;22752;51.960;5.886;2023-11-21T04:16:15;8.80;99.90
36800;DHT22;22752;51.960;5.886;2023-11-21T04:18:40;8.80;99.90
36800;DHT22;22752;51.960;5.886;2023-11-21T04:21:06;8.80;99.90
36800;DHT22;22752;51.960;5.886;2023-11-21T04:23:33;8.80;99.90
36800;DHT22;22752;51.960;5.886;2023-11-21T04:25:59;8.80;99.90
36800;DHT22;22752;51.960;5.886;2023-11-21T04:28:25;8.80;99.90
36800;DHT22;22752;51.960;5.886;2023-11-21T04:30:51;8.80;99.90
36800;DHT22;22752;51.960;5.886;2023-11-21T04:33:17;8.80;99.90
36800;DHT22;22752;51.960;5.886;2023-11-21T04:35:42;8.80;99.90
36800;DHT22;22752;51.960;5.886;2023-11-21T04:38:08;8.80;99.90
36800;DHT22;22752;51.960;5.886;2023-11-21T04:40:34;8.80;99.90
36800;DHT22;22752;51.960;5.886;2023-11-21T04:42:59;8.80;99.90
36800;DHT22;22752;51.960;5.886;2023-11-21T04:45:25;8.80;99.90
36800;DHT22;22752;51.960;5.886;2023-11-21T04:47:50;8.80;99.90
36800;DHT22;22752;51.960;5.886;2023-11-21T04:50:18;8.70;99.90
36800;DHT22;22752;51.960;5.886;2023-11-21T04:52:44;8.70;99.90
36800;DHT22;22752;51.960;5.886;2023-11-21T04:55:10;8.80;99.90
36800;DHT22;22752;51.960;5.886;2023-11-21T04:57:39;8.70;99.90
36800;DHT22;22752;51.960;5.886;2023-11-21T05:00:09;8.80;99.90
36800;DHT22;22752;51.960;5.886;2023-11-21T05:02:35;8.80;99.90
36800;DHT22;22752;51.960;5.886;2023-11-21T05:05:01;8.80;99.90
36800;DHT22;22752;51.960;5.886;2023-11-21T05:07:27;8.80;99.90
36800;DHT22;22752;51.960;5.886;2023-11-21T05:09:55;8.80;99.90
36800;DHT22;22752;51.960;5.886;2023-11-21T05:12:24;8.80;99.90
36800;DHT22;22752;51.960;5.886;2023-11-21T05:14:51;8.80;99.90
36800;DHT22;22752;51.960;5.886;2023-11-21T05:17:16;8.80;99.90
36800;DHT22;22752;51.960;5.886;2023-11-21T05:19:42;8.80;99.90
36800;DHT22;22752;51.960;5.886;2023-11-21T05:22:10;8.80;99.90
36800;DHT22;22752;51.960;5.886;2023-11-21T05:24:37;8.80;99.90
36800;DHT22;22752;51.960;5.886;2023-11-21T05:27:04;8.80;99.90
36800;DHT22;22752;51.960;5.886;2023-11-21T05:29:30;8.80;99.90
36800;DHT22;22752;51.960;5.886;2023-11-21T05:31:55;8.80;99.90
36800;DHT22;22752;51.960;5.886;2023-11-21T05:34:21;8.80;99.90
36800;DHT22;22752;51.960;5.886;2023-11-21T05:36:49;8.80;99.90
36800;DHT22;22752;51.960;5.886;2023-11-21T05:39:15;8.80;99.90
36800;DHT22;22752;51.960;5.886;2023-11-21T05:41:43;8.80;99.90
36800;DHT22;22752;51.960;5.886;2023-11-21T05:44:08;8.80;99.90
36800;DHT22;22752;51.960;5.886;2023-11-21T05:46:34;8.80;99.90
36800;DHT22;22752;51.960;5.886;2023-11-21T05:49:00;8.80;99.90
36800;DHT22;22752;51.960;5.886;2023-11-21T05:51:26;8.80;99.90
36800;DHT22;22752;51.960;5.886;2023-11-21T05:53:51;8.80;99.90
36800;DHT22;22752;51.960;5.886;2023-11-21T05:56:17;8.80;99.90
36800;DHT22;22752;51.960;5.886;2023-11-21T05:58:43;8.90;99.90
36800;DHT22;22752;51.960;5.886;2023-11-21T06:01:09;8.90;99.90
36800;DHT22;22752;51.960;5.886;2023-11-21T06:03:38;8.90;99.90
36800;DHT22;22752;51.960;5.886;2023-11-21T06:06:04;8.90;99.90
36800;DHT22;22752;51.960;5.886;2023-11-21T06:08:30;8.90;99.90
36800;DHT22;22752;51.960;5.886;2023-11-21T06:10:56;9.00;99.90
36800;DHT22;22752;51.960;5.886;2023-11-21T06:13:21;9.00;99.90
36800;DHT22;22752;51.960;5.886;2023-11-21T06:15:50;9.00;99.90
36800;DHT22;22752;51.960;5.886;2023-11-21T06:18:16;9.00;99.90
36800;DHT22;22752;51.960;5.886;2023-11-21T06:20:45;9.00;99.90
36800;DHT22;22752;51.960;5.886;2023-11-21T06:23:10;9.00;99.90
36800;DHT22;22752;51.960;5.886;2023-11-21T06:25:36;9.00;99.90
36800;DHT22;22752;51.960;5.886;2023-11-21T06:28:02;9.10;99.90
36800;DHT22;22752;51.960;5.886;2023-11-21T06:30:28;9.00;99.90
36800;DHT22;22752;51.960;5.886;2023-11-21T06:32:54;9.10;99.90
36800;DHT22;22752;51.960;5.886;2023-11-21T06:35:21;9.10;99.90
36800;DHT22;22752;51.960;5.886;2023-11-21T06:37:47;9.10;99.90
36800;DHT22;22752;51.960;5.886;2023-11-21T06:40:17;9.10;99.90
36800;DHT22;22752;51.960;5.886;2023-11-21T06:42:46;9.10;99.90
36800;DHT22;22752;51.960;5.886;2023-11-21T06:45:12;9.10;99.90
36800;DHT22;22752;51.960;5.886;2023-11-21T06:47:38;9.10;99.90
36800;DHT22;22752;51.960;5.886;2023-11-21T06:50:05;9.10;99.90
36800;DHT22;22752;51.960;5.886;2023-11-21T06:52:32;9.10;99.90
36800;DHT22;22752;51.960;5.886;2023-11-21T06:54:58;9.10;99.90
36800;DHT22;22752;51.960;5.886;2023-11-21T06:57:23;9.10;99.90
36800;DHT22;22752;51.960;5.886;2023-11-21T06:59:49;9.10;99.90
36800;DHT22;22752;51.960;5.886;2023-11-21T07:02:16;9.10;99.90
36800;DHT22;22752;51.960;5.886;2023-11-21T07:04:46;9.20;99.90
36800;DHT22;22752;51.960;5.886;2023-11-21T07:07:12;9.20;99.90
36800;DHT22;22752;51.960;5.886;2023-11-21T07:09:38;9.20;99.90
36800;DHT22;22752;51.960;5.886;2023-11-21T07:12:05;9.20;99.90
36800;DHT22;22752;51.960;5.886;2023-11-21T07:14:33;9.10;99.90
36800;DHT22;22752;51.960;5.886;2023-11-21T07:16:59;9.20;99.90
36800;DHT22;22752;51.960;5.886;2023-11-21T07:19:25;9.20;99.90
36800;DHT22;22752;51.960;5.886;2023-11-21T07:21:50;9.20;99.90
36800;DHT22;22752;51.960;5.886;2023-11-21T07:24:17;9.20;99.90
36800;DHT22;22752;51.960;5.886;2023-11-21T07:26:42;9.20;99.90
36800;DHT22;22752;51.960;5.886;2023-11-21T07:29:08;9.30;99.90
36800;DHT22;22752;51.960;5.886;2023-11-21T07:31:34;9.30;99.90
36800;DHT22;22752;51.960;5.886;2023-11-21T07:34:00;9.30;99.90
36800;DHT22;22752;51.960;5.886;2023-11-21T07:36:26;9.30;99.90
36800;DHT22;22752;51.960;5.886;2023-11-21T07:38:52;9.30;99.90
36800;DHT22;22752;51.960;5.886;2023-11-21T07:41:18;9.40;99.90
36800;DHT22;22752;51.960;5.886;2023-11-21T07:43:45;9.40;99.90
36800;DHT22;22752;51.960;5.886;2023-11-21T07:46:11;9.40;99.90
36800;DHT22;22752;51.960;5.886;2023-11-21T07:48:40;9.40;99.90
36800;DHT22;22752;51.960;5.886;2023-11-21T07:51:08;9.50;99.90
36800;DHT22;22752;51.960;5.886;2023-11-21T07:53:34;9.40;99.90
36800;DHT22;22752;51.960;5.886;2023-11-21T07:56:03;9.50;99.90
36800;DHT22;22752;51.960;5.886;2023-11-21T07:58:29;9.50;99.90
36800;DHT22;22752;51.960;5.886;2023-11-21T08:00:56;9.50;99.90
36800;DHT22;22752;51.960;5.886;2023-11-21T08:03:22;9.60;99.90
36800;DHT22;22752;51.960;5.886;2023-11-21T08:05:47;9.60;99.90
36800;DHT22;22752;51.960;5.886;2023-11-21T08:08:13;9.60;99.90
36800;DHT22;22752;51.960;5.886;2023-11-21T08:10:39;9.70;99.90
36800;DHT22;22752;51.960;5.886;2023-11-21T08:13:05;9.70;99.90
36800;DHT22;22752;51.960;5.886;2023-11-21T08:15:34;9.70;99.90
36800;DHT22;22752;51.960;5.886;2023-11-21T08:18:02;9.70;99.90
36800;DHT22;22752;51.960;5.886;2023-11-21T08:20:28;9.70;99.90
36800;DHT22;22752;51.960;5.886;2023-11-21T08:22:53;9.80;99.90
36800;DHT22;22752;51.960;5.886;2023-11-21T08:25:22;9.80;99.90
36800;DHT22;22752;51.960;5.886;2023-11-21T08:27:47;9.80;99.90
36800;DHT22;22752;51.960;5.886;2023-11-21T08:30:14;9.80;99.90
36800;DHT22;22752;51.960;5.886;2023-11-21T08:32:39;9.90;99.90
36800;DHT22;22752;51.960;5.886;2023-11-21T08:35:07;9.90;99.90
36800;DHT22;22752;51.960;5.886;2023-11-21T08:37:33;9.90;99.90
36800;DHT22;22752;51.960;5.886;2023-11-21T08:40:03;10.00;99.90
36800;DHT22;22752;51.960;5.886;2023-11-21T08:42:29;10.00;99.90
36800;DHT22;22752;51.960;5.886;2023-11-21T08:44:56;10.00;99.90
36800;DHT22;22752;51.960;5.886;2023-11-21T08:47:23;10.00;99.90
36800;DHT22;22752;51.960;5.886;2023-11-21T08:49:50;10.00;99.90
36800;DHT22;22752;51.960;5.886;2023-11-21T08:52:19;10.00;99.90
36800;DHT22;22752;51.960;5.886;2023-11-21T08:54:49;10.10;99.90
36800;DHT22;22752;51.960;5.886;2023-11-21T08:57:24;10.10;99.90
36800;DHT22;22752;51.960;5.886;2023-11-21T08:59:49;10.10;99.90
36800;DHT22;22752;51.960;5.886;2023-11-21T09:02:23;10.20;99.90
36800;DHT22;22752;51.960;5.886;2023-11-21T09:04:49;10.20;99.90
36800;DHT22;22752;51.960;5.886;2023-11-21T09:07:16;10.20;99.90
36800;DHT22;22752;51.960;5.886;2023-11-21T09:09:41;10.30;99.90
36800;DHT22;22752;51.960;5.886;2023-11-21T09:12:07;10.30;99.90
36800;DHT22;22752;51.960;5.886;2023-11-21T09:14:33;10.30;99.90
36800;DHT22;22752;51.960;5.886;2023-11-21T09:16:59;10.30;99.90
36800;DHT22;22752;51.960;5.886;2023-11-21T09:19:24;10.30;99.90
36800;DHT22;22752;51.960;5.886;2023-11-21T09:21:50;10.30;99.90
36800;DHT22;22752;51.960;5.886;2023-11-21T09:24:16;10.30;99.90
36800;DHT22;22752;51.960;5.886;2023-11-21T09:26:41;10.20;99.90
36800;DHT22;22752;51.960;5.886;2023-11-21T09:29:07;10.20;99.90
36800;DHT22;22752;51.960;5.886;2023-11-21T09:31:33;10.30;99.90
36800;DHT22;22752;51.960;5.886;2023-11-21T09:33:59;10.30;99.90
36800;DHT22;22752;51.960;5.886;2023-11-21T09:36:25;10.20;99.90
36800;DHT22;22752;51.960;5.886;2023-11-21T09:38:53;10.20;99.90
36800;DHT22;22752;51.960;5.886;2023-11-21T09:41:40;10.20;99.90
36800;DHT22;22752;51.960;5.886;2023-11-21T09:44:10;10.30;99.90
36800;DHT22;22752;51.960;5.886;2023-11-21T09:46:40;10.30;99.90
36800;DHT22;22752;51.960;5.886;2023-11-21T09:49:09;10.30;99.90
36800;DHT22;22752;51.960;5.886;2023-11-21T09:51:39;10.40;99.90
36800;DHT22;22752;51.960;5.886;2023-11-21T09:54:07;10.50;99.90
36800;DHT22;22752;51.960;5.886;2023-11-21T09:56:34;10.50;99.90
36800;DHT22;22752;51.960;5.886;2023-11-21T09:59:01;10.50;99.90
36800;DHT22;22752;51.960;5.886;2023-11-21T10:01:33;10.50;99.90
36800;DHT22;22752;51.960;5.886;2023-11-21T10:04:01;10.50;99.90
36800;DHT22;22752;51.960;5.886;2023-11-21T10:06:26;10.50;99.90
36800;DHT22;22752;51.960;5.886;2023-11-21T10:08:54;10.50;99.90
36800;DHT22;22752;51.960;5.886;2023-11-21T10:11:24;10.60;99.90
36800;DHT22;22752;51.960;5.886;2023-11-21T10:13:53;10.80;99.90
36800;DHT22;22752;51.960;5.886;2023-11-21T10:16:20;11.00;99.90
36800;DHT22;22752;51.960;5.886;2023-11-21T10:18:52;11.20;99.90
36800;DHT22;22752;51.960;5.886;2023-11-21T10:21:20;11.30;99.90
36800;DHT22;22752;51.960;5.886;2023-11-21T10:23:45;11.30;99.90
36800;DHT22;22752;51.960;5.886;2023-11-21T10:26:12;11.30;99.90
36800;DHT22;22752;51.960;5.886;2023-11-21T10:29:03;11.30;99.90
36800;DHT22;22752;51.960;5.886;2023-11-21T10:31:32;11.30;99.90
36800;DHT22;22752;51.960;5.886;2023-11-21T10:36:41;11.40;99.90
36800;DHT22;22752;51.960;5.886;2023-11-21T10:39:07;11.30;99.90
36800;DHT22;22752;51.960;5.886;2023-11-21T10:41:33;11.30;99.90
36800;DHT22;22752;51.960;5.886;2023-11-21T10:43:58;11.30;99.90
36800;DHT22;22752;51.960;5.886;2023-11-21T10:46:24;11.30;99.90
36800;DHT22;22752;51.960;5.886;2023-11-21T10:48:54;11.40;99.90
36800;DHT22;22752;51.960;5.886;2023-11-21T10:51:22;11.50;99.90
36800;DHT22;22752;51.960;5.886;2023-11-21T10:53:51;11.40;99.90
36800;DHT22;22752;51.960;5.886;2023-11-21T10:56:18;11.40;99.90
36800;DHT22;22752;51.960;5.886;2023-11-21T10:58:48;11.40;99.90
36800;DHT22;22752;51.960;5.886;2023-11-21T11:01:16;11.30;99.90
36800;DHT22;22752;51.960;5.886;2023-11-21T11:03:44;11.30;99.90
36800;DHT22;22752;51.960;5.886;2023-11-21T11:06:10;11.20;99.90
36800;DHT22;22752;51.960;5.886;2023-11-21T11:08:38;11.10;99.90
36800;DHT22;22752;51.960;5.886;2023-11-21T11:11:05;11.10;99.90
36800;DHT22;22752;51.960;5.886;2023-11-21T11:13:31;11.10;99.90
36800;DHT22;22752;51.960;5.886;2023-11-21T11:16:01;11.10;99.90
36800;DHT22;22752;51.960;5.886;2023-11-21T11:18:32;11.00;99.90
36800;DHT22;22752;51.960;5.886;2023-11-21T11:21:16;11.00;99.90
36800;DHT22;22752;51.960;5.886;2023-11-21T11:23:51;11.00;99.90
36800;DHT22;22752;51.960;5.886;2023-11-21T11:32:12;10.80;99.90
36800;DHT22;22752;51.960;5.886;2023-11-21T11:34:46;10.80;99.90
36800;DHT22;22752;51.960;5.886;2023-11-21T11:37:12;10.70;99.90
36800;DHT22;22752;51.960;5.886;2023-11-21T11:39:42;10.70;99.90
36800;DHT22;22752;51.960;5.886;2023-11-21T11:42:15;10.80;99.90
36800;DHT22;22752;51.960;5.886;2023-11-21T11:47:32;10.90;99.90
36800;DHT22;22752;51.960;5.886;2023-11-21T11:52:43;10.90;99.90
36800;DHT22;22752;51.960;5.886;2023-11-21T11:55:10;10.90;99.90
36800;DHT22;22752;51.960;5.886;2023-11-21T11:57:38;10.90;99.90
36800;DHT22;22752;51.960;5.886;2023-11-21T12:00:17;10.80;99.90
36800;DHT22;22752;51.960;5.886;2023-11-21T12:03:03;10.90;99.90
36800;DHT22;22752;51.960;5.886;2023-11-21T12:05:31;10.90;99.90
36800;DHT22;22752;51.960;5.886;2023-11-21T12:08:08;10.90;99.90
36800;DHT22;22752;51.960;5.886;2023-11-21T12:10:36;11.00;99.90
36800;DHT22;22752;51.960;5.886;2023-11-21T12:13:06;11.00;99.90
36800;DHT22;22752;51.960;5.886;2023-11-21T12:15:36;11.10;99.90
36800;DHT22;22752;51.960;5.886;2023-11-21T12:18:03;11.10;99.90
36800;DHT22;22752;51.960;5.886;2023-11-21T12:20:32;11.10;99.90
36800;DHT22;22752;51.960;5.886;2023-11-21T12:22:59;11.10;99.90
36800;DHT22;22752;51.960;5.886;2023-11-21T12:25:30;11.20;99.90
36800;DHT22;22752;51.960;5.886;2023-11-21T12:28:00;11.10;99.90
36800;DHT22;22752;51.960;5.886;2023-11-21T12:30:28;11.10;99.90
36800;DHT22;22752;51.960;5.886;2023-11-21T12:32:56;11.10;99.90
36800;DHT22;22752;51.960;5.886;2023-11-21T12:35:33;11.00;99.90
36800;DHT22;22752;51.960;5.886;2023-11-21T12:38:00;11.00;99.90
36800;DHT22;22752;51.960;5.886;2023-11-21T12:40:28;10.90;99.90
36800;DHT22;22752;51.960;5.886;2023-11-21T12:42:56;10.90;99.90
36800;DHT22;22752;51.960;5.886;2023-11-21T12:45:29;10.90;99.90
36800;DHT22;22752;51.960;5.886;2023-11-21T12:50:26;10.90;99.90
36800;DHT22;22752;51.960;5.886;2023-11-21T12:53:10;10.80;99.90
36800;DHT22;22752;51.960;5.886;2023-11-21T12:55:43;10.80;99.90
36800;DHT22;22752;51.960;5.886;2023-11-21T12:58:15;10.80;99.90
36800;DHT22;22752;51.960;5.886;2023-11-21T13:00:48;10.70;99.90
36800;DHT22;22752;51.960;5.886;2023-11-21T13:03:16;10.80;99.90
36800;DHT22;22752;51.960;5.886;2023-11-21T13:05:44;10.80;99.90
36800;DHT22;22752;51.960;5.886;2023-11-21T13:08:12;10.80;99.90
36800;DHT22;22752;51.960;5.886;2023-11-21T13:10:40;10.80;99.90
36800;DHT22;22752;51.960;5.886;2023-11-21T13:13:09;10.70;99.90
36800;DHT22;22752;51.960;5.886;2023-11-21T13:15:39;10.70;99.90
36800;DHT22;22752;51.960;5.886;2023-11-21T13:18:06;10.70;99.90
36800;DHT22;22752;51.960;5.886;2023-11-21T13:20:32;10.70;99.90
36800;DHT22;22752;51.960;5.886;2023-11-21T13:22:58;10.60;99.90
36800;DHT22;22752;51.960;5.886;2023-11-21T13:25:27;10.70;99.90
36800;DHT22;22752;51.960;5.886;2023-11-21T13:27:56;10.70;99.90
36800;DHT22;22752;51.960;5.886;2023-11-21T13:30:23;10.70;99.90
36800;DHT22;22752;51.960;5.886;2023-11-21T13:32:53;10.60;99.90
36800;DHT22;22752;51.960;5.886;2023-11-21T13:35:19;10.60;99.90
36800;DHT22;22752;51.960;5.886;2023-11-21T13:37:56;10.70;99.90
36800;DHT22;22752;51.960;5.886;2023-11-21T13:40:26;10.60;99.90
36800;DHT22;22752;51.960;5.886;2023-11-21T13:42:53;10.70;99.90
36800;DHT22;22752;51.960;5.886;2023-11-21T13:45:21;10.70;99.90
36800;DHT22;22752;51.960;5.886;2023-11-21T13:47:49;10.80;99.90
36800;DHT22;22752;51.960;5.886;2023-11-21T13:50:17;10.90;99.90
36800;DHT22;22752;51.960;5.886;2023-11-21T13:52:48;10.90;99.90
36800;DHT22;22752;51.960;5.886;2023-11-21T13:55:15;10.90;99.90
36800;DHT22;22752;51.960;5.886;2023-11-21T13:57:45;10.90;99.90
36800;DHT22;22752;51.960;5.886;2023-11-21T14:00:15;10.90;99.90
36800;DHT22;22752;51.960;5.886;2023-11-21T14:03:01;11.00;99.90
36800;DHT22;22752;51.960;5.886;2023-11-21T14:05:31;11.00;99.90
36800;DHT22;22752;51.960;5.886;2023-11-21T14:07:59;11.00;99.90
36800;DHT22;22752;51.960;5.886;2023-11-21T14:10:30;10.90;99.90
36800;DHT22;22752;51.960;5.886;2023-11-21T14:13:06;10.90;99.90
36800;DHT22;22752;51.960;5.886;2023-11-21T14:15:32;10.70;99.90
36800;DHT22;22752;51.960;5.886;2023-11-21T14:18:02;10.60;99.90
36800;DHT22;22752;51.960;5.886;2023-11-21T14:20:33;10.50;99.90
36800;DHT22;22752;51.960;5.886;2023-11-21T14:22:59;10.40;99.90
36800;DHT22;22752;51.960;5.886;2023-11-21T14:25:24;10.30;99.90
36800;DHT22;22752;51.960;5.886;2023-11-21T14:27:50;10.30;99.90
36800;DHT22;22752;51.960;5.886;2023-11-21T14:30:16;10.20;99.90
36800;DHT22;22752;51.960;5.886;2023-11-21T14:32:44;10.20;99.90
36800;DHT22;22752;51.960;5.886;2023-11-21T14:35:10;10.20;99.90
36800;DHT22;22752;51.960;5.886;2023-11-21T14:37:36;10.20;99.90
36800;DHT22;22752;51.960;5.886;2023-11-21T14:40:01;10.20;99.90
36800;DHT22;22752;51.960;5.886;2023-11-21T14:42:30;10.20;99.90
36800;DHT22;22752;51.960;5.886;2023-11-21T14:44:55;10.20;99.90
36800;DHT22;22752;51.960;5.886;2023-11-21T14:47:25;10.10;99.90
36800;DHT22;22752;51.960;5.886;2023-11-21T14:49:52;10.20;99.90
36800;DHT22;22752;51.960;5.886;2023-11-21T14:52:22;10.20;99.90
36800;DHT22;22752;51.960;5.886;2023-11-21T14:55:03;10.20;99.90
36800;DHT22;22752;51.960;5.886;2023-11-21T14:57:44;10.10;99.90
36800;DHT22;22752;51.960;5.886;2023-11-21T15:00:16;10.20;99.90
36800;DHT22;22752;51.960;5.886;2023-11-21T15:03:02;10.10;99.90
36800;DHT22;22752;51.960;5.886;2023-11-21T15:05:28;10.10;99.90
36800;DHT22;22752;51.960;5.886;2023-11-21T15:07:54;10.00;99.90
36800;DHT22;22752;51.960;5.886;2023-11-21T15:10:24;10.00;99.90
36800;DHT22;22752;51.960;5.886;2023-11-21T15:13:10;10.00;99.90
36800;DHT22;22752;51.960;5.886;2023-11-21T15:15:36;10.00;99.90
36800;DHT22;22752;51.960;5.886;2023-11-21T15:18:03;9.90;99.90
36800;DHT22;22752;51.960;5.886;2023-11-21T15:20:29;9.80;99.90
36800;DHT22;22752;51.960;5.886;2023-11-21T15:22:55;9.80;99.90
36800;DHT22;22752;51.960;5.886;2023-11-21T15:25:21;9.80;99.90
36800;DHT22;22752;51.960;5.886;2023-11-21T15:27:47;9.70;99.90
36800;DHT22;22752;51.960;5.886;2023-11-21T15:30:18;9.70;99.90
36800;DHT22;22752;51.960;5.886;2023-11-21T15:32:48;9.70;99.90
36800;DHT22;22752;51.960;5.886;2023-11-21T15:35:14;9.60;99.90
36800;DHT22;22752;51.960;5.886;2023-11-21T15:37:40;9.50;99.90
36800;DHT22;22752;51.960;5.886;2023-11-21T15:40:06;9.50;99.90
36800;DHT22;22752;51.960;5.886;2023-11-21T15:42:34;9.40;99.90
36800;DHT22;22752;51.960;5.886;2023-11-21T15:45:02;9.40;99.90
36800;DHT22;22752;51.960;5.886;2023-11-21T15:47:30;9.30;99.90
36800;DHT22;22752;51.960;5.886;2023-11-21T15:49:55;9.30;99.90
36800;DHT22;22752;51.960;5.886;2023-11-21T15:52:21;9.30;99.90
36800;DHT22;22752;51.960;5.886;2023-11-21T15:54:47;9.20;99.90
36800;DHT22;22752;51.960;5.886;2023-11-21T15:57:12;9.20;99.90
36800;DHT22;22752;51.960;5.886;2023-11-21T15:59:40;9.10;99.90